createdAt,value
2022-08-22T00:00:13.352Z,5.23
2022-08-22T00:02:57.905Z,5.57
2022-08-22T00:03:09.682Z,5.60
2022-08-22T00:06:16.314Z,5.30
2022-08-22T00:09:02.938Z,5.27
2022-08-22T00:11:45.491Z,5.40
2022-08-22T00:14:21.781Z,6.07
2022-08-22T00:16:59.677Z,5.87
2022-08-22T00:19:42.002Z,5.80
2022-08-22T00:22:20.536Z,5.17
2022-08-22T00:24:55.682Z,5.50
2022-08-22T00:27:33.964Z,5.70
2022-08-22T00:30:14.549Z,5.60
2022-08-22T00:32:49.695Z,6.00
2022-08-22T00:35:28.543Z,6.00
2022-08-22T00:38:11.818Z,6.70
2022-08-22T00:41:04.756Z,5.63
2022-08-22T00:44:12.678Z,5.87
2022-08-22T00:47:18.464Z,5.90
2022-08-22T00:50:08.836Z,5.60
2022-08-22T00:53:05.202Z,5.97
2022-08-22T00:55:55.180Z,6.10
2022-08-22T00:59:23.947Z,5.63
2022-08-22T01:02:06.426Z,5.57
2022-08-22T01:04:56.174Z,5.80
2022-08-22T01:07:55.847Z,6.33
2022-08-22T01:10:41.644Z,6.07
2022-08-22T01:13:37.776Z,5.83
2022-08-22T01:16:21.961Z,5.73
2022-08-22T01:19:13.213Z,6.00
2022-08-22T01:22:34.882Z,5.77
2022-08-22T01:26:06.643Z,6.43
2022-08-22T01:29:27.715Z,6.67
2022-08-22T01:32:41.754Z,5.73
2022-08-22T01:36:02.730Z,6.17
2022-08-22T01:39:03.258Z,6.57
2022-08-22T01:42:07.892Z,6.33
2022-08-22T01:45:18.126Z,6.40
2022-08-22T01:47:53.719Z,6.40
2022-08-22T01:50:27.057Z,6.07
2022-08-22T01:53:07.226Z,6.33
2022-08-22T01:55:41.383Z,5.93
2022-08-22T01:58:19.726Z,5.60
2022-08-22T02:01:14.798Z,6.03
2022-08-22T02:04:00.410Z,6.07
2022-08-22T02:06:42.161Z,5.77
2022-08-22T02:09:27.379Z,6.87
2022-08-22T02:12:00.389Z,6.63
2022-08-22T02:14:42.380Z,7.07
2022-08-22T02:17:19.874Z,7.13
2022-08-22T02:19:57.648Z,6.53
2022-08-22T02:22:44.505Z,6.67
2022-08-22T02:25:22.930Z,6.83
2022-08-22T02:27:59.026Z,6.10
2022-08-22T02:30:45.390Z,6.37
2022-08-22T02:33:25.298Z,6.93
2022-08-22T02:35:58.144Z,7.07
2022-08-22T02:38:33.739Z,6.70
2022-08-22T02:41:15.750Z,6.80
2022-08-22T02:43:53.285Z,6.90
2022-08-22T02:46:30.717Z,6.50
2022-08-22T02:49:14.158Z,6.03
2022-08-22T02:51:53.174Z,6.90
2022-08-22T02:54:31.885Z,6.60
2022-08-22T02:57:09.539Z,6.57
2022-08-22T03:00:32.542Z,6.67
2022-08-22T03:03:17.226Z,6.60
2022-08-22T03:06:01.311Z,6.20
2022-08-22T03:08:34.402Z,5.73
2022-08-22T03:11:17.561Z,6.63
2022-08-22T03:13:56.767Z,7.10
2022-08-22T03:16:35.985Z,6.97
2022-08-22T03:19:14.868Z,6.67
2022-08-22T03:21:55.646Z,7.17
2022-08-22T03:24:32.948Z,7.17
2022-08-22T03:27:09.358Z,6.80
2022-08-22T03:29:46.202Z,7.33
2022-08-22T03:32:19.209Z,7.53
2022-08-22T03:35:03.727Z,6.70
2022-08-22T03:37:41.694Z,7.27
2022-08-22T03:40:31.449Z,6.80
2022-08-22T03:43:27.183Z,7.43
2022-08-22T03:46:45.916Z,7.43
2022-08-22T03:49:59.791Z,6.80
2022-08-22T03:53:18.717Z,7.20
2022-08-22T03:56:40.653Z,6.73
2022-08-22T04:00:00.540Z,6.93
2022-08-22T04:03:12.861Z,6.60
2022-08-22T04:06:23.274Z,7.23
2022-08-22T04:09:22.417Z,6.73
2022-08-22T04:12:25.885Z,6.60
2022-08-22T04:15:40.481Z,6.70
2022-08-22T04:18:46.405Z,6.10
2022-08-22T04:22:16.210Z,6.67
2022-08-22T04:24:54.365Z,6.63
2022-08-22T04:27:30.719Z,6.43
2022-08-22T04:30:08.691Z,6.73
2022-08-22T04:32:44.014Z,6.57
2022-08-22T04:35:27.359Z,6.37
2022-08-22T04:38:01.770Z,6.63
2022-08-22T04:40:37.397Z,6.70
2022-08-22T04:43:14.606Z,6.93
2022-08-22T04:45:49.825Z,7.03
2022-08-22T04:48:26.930Z,6.27
2022-08-22T04:51:03.173Z,6.63
2022-08-22T04:53:57.500Z,6.07
2022-08-22T04:56:40.747Z,6.77
2022-08-22T04:59:14.122Z,6.97
2022-08-22T05:01:47.940Z,6.00
2022-08-22T05:04:21.112Z,6.67
2022-08-22T05:06:55.084Z,5.40
2022-08-22T05:09:29.637Z,6.47
2022-08-22T05:12:05.439Z,6.73
2022-08-22T05:14:40.893Z,6.27
2022-08-22T05:17:15.499Z,6.83
2022-08-22T05:19:51.350Z,6.43
2022-08-22T05:22:25.580Z,7.30
2022-08-22T05:25:00.093Z,7.00
2022-08-22T05:27:33.263Z,6.83
2022-08-22T05:30:09.651Z,7.07
2022-08-22T05:32:50.166Z,6.50
2022-08-22T05:35:21.205Z,6.67
2022-08-22T05:37:55.638Z,6.50
2022-08-22T05:40:27.281Z,6.70
2022-08-22T05:42:58.106Z,6.10
2022-08-22T05:45:28.758Z,6.40
2022-08-22T05:48:04.250Z,6.10
2022-08-22T05:50:39.490Z,6.80
2022-08-22T05:53:14.394Z,6.60
2022-08-22T05:55:56.644Z,6.57
2022-08-22T05:58:51.688Z,6.50
2022-08-22T06:01:30.115Z,5.70
2022-08-22T06:04:17.562Z,6.70
2022-08-22T06:06:56.920Z,6.63
2022-08-22T06:09:35.900Z,6.87
2022-08-22T06:12:18.195Z,6.93
2022-08-22T06:15:00.663Z,7.00
2022-08-22T06:17:34.393Z,6.83
2022-08-22T06:20:04.221Z,6.50
2022-08-22T06:22:38.029Z,7.07
2022-08-22T06:25:15.342Z,6.50
2022-08-22T06:27:46.665Z,6.60
2022-08-22T06:30:17.148Z,6.57
2022-08-22T06:32:59.926Z,6.60
2022-08-22T06:35:53.790Z,5.67
2022-08-22T06:38:25.731Z,6.50
2022-08-22T06:40:56.579Z,5.10
2022-08-22T06:43:26.530Z,5.40
2022-08-22T06:45:55.998Z,5.27
2022-08-22T06:48:25.629Z,4.73
2022-08-22T06:50:58.854Z,4.83
2022-08-22T06:53:33.566Z,5.53
2022-08-22T06:56:05.644Z,4.97
2022-08-22T06:58:39.897Z,4.80
2022-08-22T07:01:12.779Z,4.17
2022-08-22T07:03:46.471Z,3.93
2022-08-22T07:06:17.807Z,4.90
2022-08-22T07:08:47.507Z,4.87
2022-08-22T07:11:25.588Z,4.57
2022-08-22T07:13:58.154Z,4.77
2022-08-22T07:16:35.945Z,4.47
2022-08-22T07:19:04.324Z,4.27
2022-08-22T07:21:46.218Z,3.67
2022-08-22T07:24:22.108Z,4.03
2022-08-22T07:27:12.632Z,4.00
2022-08-22T07:30:00.739Z,4.20
2022-08-22T07:32:43.306Z,3.93
2022-08-22T07:35:16.429Z,3.97
2022-08-22T07:37:58.466Z,3.57
2022-08-22T07:40:34.866Z,3.50
2022-08-22T07:43:17.608Z,3.90
2022-08-22T07:45:53.249Z,3.67
2022-08-22T07:48:28.491Z,3.53
2022-08-22T07:51:05.700Z,3.07
2022-08-22T07:53:42.832Z,3.40
2022-08-22T07:56:17.162Z,3.40
2022-08-22T07:59:09.900Z,3.40
2022-08-22T08:01:48.150Z,3.30
2022-08-22T08:04:20.848Z,3.13
2022-08-22T08:06:52.833Z,3.37
2022-08-22T08:09:21.992Z,2.97
2022-08-22T08:11:54.634Z,3.00
2022-08-22T08:14:26.106Z,3.07
2022-08-22T08:17:03.742Z,2.77
2022-08-22T08:19:36.123Z,3.00
2022-08-22T08:22:05.963Z,2.97
2022-08-22T08:24:44.759Z,2.90
2022-08-22T08:27:36.503Z,2.70
2022-08-22T08:30:15.573Z,2.60
2022-08-22T08:32:50.082Z,2.43
2022-08-22T08:35:25.490Z,2.90
2022-08-22T08:38:01.121Z,2.60
2022-08-22T08:40:58.751Z,2.17
2022-08-22T08:43:38.287Z,2.20
2022-08-22T08:46:57.427Z,2.57
2022-08-22T08:49:42.928Z,2.60
2022-08-22T08:52:58.537Z,1.97
2022-08-22T08:55:42.134Z,2.20
2022-08-22T08:58:34.809Z,2.47
2022-08-22T09:01:20.940Z,1.88
2022-08-22T09:04:40.314Z,1.75
2022-08-22T09:07:37.694Z,2.08
2022-08-22T09:10:39.392Z,1.83
2022-08-22T09:13:34.486Z,1.90
2022-08-22T09:16:36.136Z,1.88
2022-08-22T09:23:05.220Z,2.10
2022-08-22T09:25:44.194Z,1.70
2022-08-22T09:28:18.195Z,2.00
2022-08-22T09:31:21.972Z,1.52
2022-08-22T09:34:09.905Z,1.67
2022-08-22T09:37:02.213Z,1.67
2022-08-22T09:39:39.302Z,1.80
2022-08-22T09:42:20.142Z,2.47
2022-08-22T09:45:19.029Z,1.73
2022-08-22T09:48:07.296Z,1.77
2022-08-22T09:50:54.649Z,1.57
2022-08-22T09:53:53.141Z,1.90
2022-08-22T09:56:28.984Z,2.00
2022-08-22T09:59:06.646Z,1.75
2022-08-22T10:01:48.977Z,1.95
2022-08-22T10:04:46.618Z,1.98
2022-08-22T10:07:39.956Z,1.70
2022-08-22T10:10:26.421Z,1.92
2022-08-22T10:13:02.916Z,1.90
2022-08-22T10:15:39.608Z,1.80
2022-08-22T10:18:22.026Z,2.05
2022-08-22T10:21:04.109Z,1.60
2022-08-22T10:23:41.601Z,1.70
2022-08-22T10:26:30.217Z,1.52
2022-08-22T10:29:27.842Z,1.40
2022-08-22T10:32:07.729Z,1.67
2022-08-22T10:34:49.014Z,1.90
2022-08-22T10:37:30.305Z,1.70
2022-08-22T10:40:07.140Z,1.63
2022-08-22T10:42:43.621Z,1.55
2022-08-22T10:45:35.322Z,1.67
2022-08-22T10:48:34.512Z,1.40
2022-08-22T10:51:20.478Z,1.38
2022-08-22T10:54:20.026Z,1.33
2022-08-22T10:56:59.217Z,1.70
2022-08-22T10:59:41.359Z,1.50
2022-08-22T11:02:31.902Z,1.40
2022-08-22T11:05:33.807Z,1.23
2022-08-22T11:08:40.297Z,1.35
2022-08-22T11:11:34.717Z,1.70
2022-08-22T11:14:24.186Z,1.60
2022-08-22T11:17:11.958Z,1.58
2022-08-22T11:20:12.306Z,1.33
2022-08-22T11:22:59.638Z,1.58
2022-08-22T11:25:43.853Z,1.65
2022-08-22T11:28:31.949Z,1.70
2022-08-22T11:31:11.795Z,1.77
2022-08-22T11:33:47.861Z,1.77
2022-08-22T11:36:38.110Z,1.52
2022-08-22T11:39:20.939Z,1.30
2022-08-22T11:42:01.349Z,1.38
2022-08-22T11:44:37.544Z,1.95
2022-08-22T11:47:26.764Z,1.92
2022-08-22T11:50:02.297Z,2.65
2022-08-22T11:53:01.632Z,1.70
2022-08-22T11:55:39.937Z,1.90
2022-08-22T11:58:31.212Z,2.13
2022-08-22T12:01:04.475Z,1.90
2022-08-22T12:04:03.383Z,1.80
2022-08-22T12:07:00.225Z,2.07
2022-08-22T12:09:39.161Z,1.80
2022-08-22T12:12:43.299Z,1.87
2022-08-22T12:15:21.320Z,2.10
2022-08-22T12:18:36.330Z,1.87
2022-08-22T12:21:38.449Z,1.80
2022-08-22T12:24:22.619Z,1.80
2022-08-22T12:27:27.939Z,1.53
2022-08-22T12:30:14.088Z,2.10
2022-08-22T12:33:28.995Z,2.10
2022-08-22T12:36:43.703Z,1.73
2022-08-22T12:39:43.424Z,2.13
2022-08-22T12:42:50.184Z,2.13
2022-08-22T12:45:44.043Z,1.87
2022-08-22T12:48:30.865Z,2.27
2022-08-22T12:51:22.466Z,2.07
2022-08-22T12:54:37.569Z,1.93
2022-08-22T12:57:23.809Z,1.70
2022-08-22T12:59:58.219Z,1.73
2022-08-22T13:02:30.480Z,1.57
2022-08-22T13:05:04.170Z,2.00
2022-08-22T13:07:38.529Z,1.97
2022-08-22T13:10:34.941Z,1.80
2022-08-22T13:13:12.120Z,1.63
2022-08-22T13:15:53.821Z,1.97
2022-08-22T13:18:31.172Z,1.90
2022-08-22T13:21:04.291Z,2.37
2022-08-22T13:23:39.951Z,2.23
2022-08-22T13:26:33.675Z,1.80
2022-08-22T13:29:25.115Z,2.40
2022-08-22T13:32:00.019Z,1.67
2022-08-22T13:34:39.834Z,1.80
2022-08-22T13:37:16.041Z,1.90
2022-08-22T13:39:49.320Z,1.73
2022-08-22T13:42:30.761Z,2.10
2022-08-22T13:45:05.769Z,2.07
2022-08-22T13:47:39.811Z,1.70
2022-08-22T13:50:15.113Z,1.87
2022-08-22T13:52:52.447Z,1.70
2022-08-22T13:55:36.385Z,1.70
2022-08-22T13:58:16.209Z,1.40
2022-08-22T14:01:41.923Z,1.90
2022-08-22T14:04:36.279Z,1.70
2022-08-22T14:07:28.673Z,1.87
2022-08-22T14:10:04.889Z,1.73
2022-08-22T14:12:50.726Z,1.57
2022-08-22T14:15:26.449Z,1.30
2022-08-22T14:18:10.932Z,1.30
2022-08-22T14:20:40.896Z,1.23
2022-08-22T14:23:15.574Z,1.10
2022-08-22T14:25:45.337Z,1.00
2022-08-22T14:28:27.444Z,1.27
2022-08-22T14:31:02.464Z,0.93
2022-08-22T14:33:40.103Z,1.63
2022-08-22T14:36:17.971Z,1.43
2022-08-22T14:38:52.097Z,1.60
2022-08-22T14:41:55.699Z,2.00
2022-08-22T14:44:30.606Z,1.53
2022-08-22T14:47:04.373Z,1.23
2022-08-22T14:49:55.435Z,1.37
2022-08-22T14:52:40.664Z,1.40
2022-08-22T14:55:22.707Z,1.10
2022-08-22T14:57:57.670Z,1.47
2022-08-22T15:00:33.066Z,1.30
2022-08-22T15:03:14.809Z,1.73
2022-08-22T15:05:48.051Z,1.30
2022-08-22T15:08:35.347Z,1.50
2022-08-22T15:11:13.878Z,1.50
2022-08-22T15:13:59.878Z,1.40
2022-08-22T15:16:35.953Z,1.60
2022-08-22T15:19:22.602Z,1.50
2022-08-22T15:21:51.868Z,1.50
2022-08-22T15:24:22.560Z,1.40
2022-08-22T15:26:55.522Z,1.43
2022-08-22T15:29:27.785Z,1.33
2022-08-22T15:32:02.771Z,1.30
2022-08-22T15:34:39.595Z,1.60
2022-08-22T15:37:32.368Z,1.63
2022-08-22T15:40:13.977Z,1.23
2022-08-22T15:42:47.258Z,1.30
2022-08-22T15:45:33.909Z,1.20
2022-08-22T15:48:09.047Z,1.33
2022-08-22T15:50:42.830Z,1.40
2022-08-22T15:53:20.343Z,1.30
2022-08-22T15:56:29.945Z,1.50
2022-08-22T15:59:53.417Z,2.40
2022-08-22T16:02:30.018Z,1.53
2022-08-22T16:05:27.427Z,1.50
2022-08-22T16:08:05.588Z,1.50
2022-08-22T16:10:39.869Z,1.60
2022-08-22T16:13:38.395Z,1.40
2022-08-22T16:16:13.078Z,1.40
2022-08-22T16:19:19.866Z,1.20
2022-08-22T16:22:14.852Z,1.30
2022-08-22T16:25:10.173Z,1.60
2022-08-22T16:27:54.199Z,1.97
2022-08-22T16:30:36.388Z,2.20
2022-08-22T16:33:07.078Z,1.73
2022-08-22T16:36:43.611Z,2.50
2022-08-22T16:39:34.067Z,1.60
2022-08-22T16:42:26.892Z,1.90
2022-08-22T16:45:09.768Z,2.00
2022-08-22T16:47:52.890Z,1.53
2022-08-22T16:50:37.777Z,2.03
2022-08-22T16:53:11.494Z,1.77
2022-08-22T16:56:12.472Z,1.60
2022-08-22T16:59:22.292Z,1.77
2022-08-22T17:02:19.765Z,1.50
2022-08-22T17:05:09.315Z,1.97
2022-08-22T17:07:55.459Z,1.80
2022-08-22T17:10:43.293Z,1.60
2022-08-22T17:13:50.769Z,1.43
2022-08-22T17:16:40.917Z,1.53
2022-08-22T17:19:40.137Z,1.67
2022-08-22T17:22:17.584Z,2.00
2022-08-22T17:24:52.749Z,1.90
2022-08-22T17:27:32.240Z,2.00
2022-08-22T17:30:09.872Z,1.60
2022-08-22T17:33:02.141Z,1.60
2022-08-22T17:35:46.460Z,1.77
2022-08-22T17:38:28.709Z,2.00
2022-08-22T17:41:08.087Z,1.70
2022-08-22T17:43:53.280Z,2.13
2022-08-22T17:46:35.205Z,2.03
2022-08-22T17:49:17.545Z,2.07
2022-08-22T17:51:55.253Z,2.03
2022-08-22T17:54:34.323Z,2.13
2022-08-22T17:57:09.737Z,1.87
2022-08-22T17:59:50.170Z,2.13
2022-08-22T18:02:25.328Z,1.87
2022-08-22T18:05:07.882Z,1.70
2022-08-22T18:07:56.803Z,2.00
2022-08-22T18:10:38.371Z,1.67
2022-08-22T18:13:12.909Z,1.77
2022-08-22T18:15:51.186Z,2.13
2022-08-22T18:18:31.159Z,2.07
2022-08-22T18:21:05.179Z,2.27
2022-08-22T18:23:40.853Z,2.00
2022-08-22T18:26:23.983Z,2.50
2022-08-22T18:28:56.556Z,2.10
2022-08-22T18:31:40.173Z,2.20
2022-08-22T18:34:23.578Z,1.90
2022-08-22T18:36:58.276Z,2.53
2022-08-22T18:39:33.155Z,2.27
2022-08-22T18:42:10.535Z,1.90
2022-08-22T18:44:40.929Z,1.80
2022-08-22T18:47:18.089Z,2.30
2022-08-22T18:49:54.452Z,2.00
2022-08-22T18:52:39.614Z,2.37
2022-08-22T18:55:32.462Z,2.07
2022-08-22T18:58:38.005Z,2.10
2022-08-22T19:01:35.984Z,1.67
2022-08-22T19:04:40.985Z,2.47
2022-08-22T19:07:38.733Z,1.90
2022-08-22T19:10:38.761Z,2.20
2022-08-22T19:13:40.303Z,2.00
2022-08-22T19:16:33.597Z,2.03
2022-08-22T19:19:05.267Z,2.30
2022-08-22T19:21:54.309Z,2.00
2022-08-22T19:25:18.694Z,2.47
2022-08-22T19:28:25.182Z,1.87
2022-08-22T19:31:22.772Z,2.40
2022-08-22T19:34:14.694Z,1.90
2022-08-22T19:36:46.487Z,2.20
2022-08-22T19:39:54.680Z,2.07
2022-08-22T19:42:39.517Z,1.80
2022-08-22T19:45:21.232Z,2.33
2022-08-22T19:48:00.932Z,2.27
2022-08-22T19:50:35.423Z,2.20
2022-08-22T19:53:39.146Z,2.20
2022-08-22T19:56:19.600Z,2.33
2022-08-22T19:59:12.455Z,2.30
2022-08-22T20:01:59.250Z,2.33
2022-08-22T20:04:59.942Z,2.20
2022-08-22T20:07:42.698Z,2.57
2022-08-22T20:10:26.746Z,2.20
2022-08-22T20:13:07.573Z,2.87
2022-08-22T20:16:19.346Z,2.87
2022-08-22T20:19:07.055Z,2.53
2022-08-22T20:21:54.783Z,1.97
2022-08-22T20:24:31.344Z,2.47
2022-08-22T20:27:13.984Z,2.20
2022-08-22T20:29:50.151Z,2.30
2022-08-22T20:32:24.175Z,2.60
2022-08-22T20:34:59.029Z,2.47
2022-08-22T20:37:56.187Z,2.23
2022-08-22T20:40:55.605Z,2.33
2022-08-22T20:43:31.762Z,2.60
2022-08-22T20:46:36.160Z,2.37
2022-08-22T20:49:06.960Z,2.60
2022-08-22T20:51:35.706Z,2.73
2022-08-22T20:54:18.216Z,2.20
2022-08-22T20:56:53.581Z,2.77
2022-08-22T20:59:36.986Z,2.60
2022-08-22T21:02:14.533Z,2.50
2022-08-22T21:04:52.977Z,2.30
2022-08-22T21:07:28.011Z,2.20
2022-08-22T21:10:22.875Z,2.77
2022-08-22T21:13:11.617Z,2.27
2022-08-22T21:15:43.469Z,2.43
2022-08-22T21:18:14.165Z,2.37
2022-08-22T21:20:43.865Z,2.73
2022-08-22T21:23:15.997Z,2.33
2022-08-22T21:26:00.625Z,2.37
2022-08-22T21:28:36.667Z,2.67
2022-08-22T21:31:14.745Z,3.10
2022-08-22T21:33:47.443Z,2.40
2022-08-22T21:36:22.569Z,2.50
2022-08-22T21:38:55.320Z,2.70
2022-08-22T21:41:30.969Z,2.17
2022-08-22T21:44:26.554Z,2.60
2022-08-22T21:46:56.025Z,2.33
2022-08-22T21:49:29.434Z,2.77
2022-08-22T21:51:59.179Z,2.63
2022-08-22T21:54:42.116Z,2.90
2022-08-22T21:57:34.628Z,2.70
2022-08-22T22:00:07.479Z,3.07
2022-08-22T22:02:40.190Z,2.77
2022-08-22T22:05:13.343Z,2.80
2022-08-22T22:07:45.963Z,3.00
2022-08-22T22:10:18.380Z,2.70
2022-08-22T22:12:49.121Z,2.40
2022-08-22T22:15:20.920Z,2.80
2022-08-22T22:17:49.316Z,2.77
2022-08-22T22:20:20.789Z,2.60
2022-08-22T22:22:51.910Z,2.90
2022-08-22T22:25:40.974Z,2.97
2022-08-22T22:28:15.547Z,2.20
2022-08-22T22:30:45.863Z,2.97
2022-08-22T22:33:14.209Z,2.80
2022-08-22T22:35:42.971Z,2.63
2022-08-22T22:38:13.711Z,2.70
2022-08-22T22:40:42.909Z,2.50
2022-08-22T22:43:14.661Z,3.10
2022-08-22T22:45:43.085Z,2.80
2022-08-22T22:48:11.405Z,2.60
2022-08-22T22:50:45.950Z,2.70
2022-08-22T22:53:19.405Z,2.83
2022-08-22T22:55:59.963Z,2.90
2022-08-22T22:58:29.234Z,2.37
2022-08-22T23:00:58.651Z,2.50
2022-08-22T23:03:27.386Z,3.00
2022-08-22T23:05:55.708Z,2.70
2022-08-22T23:08:25.358Z,2.60
2022-08-22T23:10:53.706Z,2.50
2022-08-22T23:13:22.538Z,3.00
2022-08-22T23:15:50.874Z,2.73
2022-08-22T23:18:20.992Z,2.73
2022-08-22T23:20:58.725Z,2.57
2022-08-22T23:23:28.370Z,3.00
2022-08-22T23:25:56.632Z,2.70
2022-08-22T23:28:24.992Z,3.03
2022-08-22T23:30:53.337Z,2.73
2022-08-22T23:33:21.656Z,2.50
2022-08-22T23:35:49.998Z,2.87
2022-08-22T23:38:18.285Z,2.97
2022-08-22T23:40:50.519Z,2.87
2022-08-22T23:43:18.812Z,2.63
2022-08-22T23:45:47.154Z,2.60
2022-08-22T23:48:15.429Z,2.87
2022-08-22T23:50:43.791Z,2.90
2022-08-22T23:53:12.065Z,2.60
2022-08-22T23:55:40.618Z,2.97
2022-08-22T23:58:10.479Z,2.90
